createdAt,value
2023-07-16T00:02:28.555Z,19.09
2023-07-16T00:12:50.013Z,19.06
2023-07-16T00:23:11.542Z,18.98
2023-07-16T00:33:33.160Z,18.99
2023-07-16T00:43:55.607Z,18.90
2023-07-16T00:54:17.234Z,18.84
2023-07-16T01:04:38.945Z,18.78
2023-07-16T01:15:00.585Z,18.75
2023-07-16T01:25:42.274Z,18.75
2023-07-16T01:36:03.866Z,18.77
2023-07-16T01:46:25.385Z,18.70
2023-07-16T01:56:46.881Z,18.64
2023-07-16T02:07:08.350Z,18.62
2023-07-16T02:17:30.953Z,18.59
2023-07-16T02:27:52.428Z,18.58
2023-07-16T02:38:13.878Z,18.56
2023-07-16T02:48:35.383Z,18.47
2023-07-16T02:58:56.847Z,18.55
2023-07-16T03:09:18.883Z,18.53
2023-07-16T03:19:40.373Z,18.52
2023-07-16T03:30:02.145Z,18.51
2023-07-16T03:40:27.605Z,18.47
2023-07-16T03:50:49.078Z,18.45
2023-07-16T04:01:10.864Z,18.39
2023-07-16T04:11:32.359Z,18.38
2023-07-16T04:21:53.828Z,18.37
2023-07-16T04:32:15.301Z,18.41
2023-07-16T04:42:36.743Z,18.33
2023-07-16T04:52:58.170Z,18.39
2023-07-16T05:03:19.618Z,18.47
2023-07-16T05:13:41.095Z,18.51
2023-07-16T05:24:02.581Z,18.59
2023-07-16T05:34:24.042Z,18.67
2023-07-16T05:44:48.076Z,18.68
2023-07-16T05:55:09.519Z,18.82
2023-07-16T06:05:35.262Z,18.92
2023-07-16T06:15:56.797Z,19.14
2023-07-16T06:26:18.480Z,19.32
2023-07-16T06:36:40.155Z,19.51
2023-07-16T06:47:02.613Z,19.67
2023-07-16T06:57:24.587Z,19.81
2023-07-16T07:07:46.268Z,19.96
2023-07-16T07:18:07.930Z,19.97
2023-07-16T07:28:29.828Z,20.14
2023-07-16T07:38:51.355Z,20.30
2023-07-16T07:49:13.006Z,20.37
2023-07-16T07:59:34.518Z,20.49
2023-07-16T08:09:56.080Z,20.67
2023-07-16T08:20:17.527Z,20.76
2023-07-16T08:30:39.111Z,20.78
2023-07-16T08:41:03.829Z,20.93
2023-07-16T08:51:26.599Z,21.24
2023-07-16T09:01:48.640Z,21.31
2023-07-16T09:12:13.458Z,21.53
2023-07-16T09:22:35.237Z,21.71
2023-07-16T09:32:56.839Z,21.78
2023-07-16T09:43:18.435Z,22.05
2023-07-16T09:53:42.986Z,22.12
2023-07-16T10:04:13.256Z,22.19
2023-07-16T10:14:40.133Z,21.98
2023-07-16T10:25:01.931Z,21.83
2023-07-16T10:37:20.911Z,21.85
2023-07-16T10:47:52.753Z,22.18
2023-07-16T10:58:14.560Z,22.68
2023-07-16T11:08:36.202Z,23.24
2023-07-16T11:18:57.810Z,23.39
2023-07-16T11:29:19.325Z,22.93
2023-07-16T11:39:40.889Z,23.16
2023-07-16T11:50:02.322Z,23.15
2023-07-16T12:00:24.282Z,23.08
2023-07-16T12:10:45.759Z,22.66
2023-07-16T12:21:07.460Z,22.39
2023-07-16T12:31:28.992Z,22.38
2023-07-16T12:41:50.750Z,22.59
2023-07-16T12:52:12.262Z,22.63
2023-07-16T13:02:33.816Z,22.73
2023-07-16T13:12:55.271Z,22.70
2023-07-16T13:23:16.758Z,22.86
2023-07-16T13:33:38.258Z,23.02
2023-07-16T13:43:59.702Z,22.76
2023-07-16T13:54:21.165Z,22.57
2023-07-16T14:04:42.562Z,22.92
2023-07-16T14:15:04.739Z,23.08
2023-07-16T14:25:26.270Z,22.90
2023-07-16T14:35:47.698Z,22.96
2023-07-16T14:46:09.698Z,23.12
2023-07-16T14:56:31.324Z,23.22
2023-07-16T15:06:52.832Z,23.38
2023-07-16T15:17:15.022Z,23.15
2023-07-16T15:27:36.688Z,22.87
2023-07-16T15:38:00.424Z,22.82
2023-07-16T15:48:21.990Z,22.87
2023-07-16T15:58:43.640Z,22.98
2023-07-16T16:09:05.140Z,23.23
2023-07-16T16:19:26.671Z,23.53
2023-07-16T16:29:48.182Z,23.43
2023-07-16T16:40:10.767Z,23.22
2023-07-16T16:50:32.273Z,22.94
2023-07-16T17:00:54.645Z,22.44
2023-07-16T17:11:16.767Z,22.22
2023-07-16T17:21:38.596Z,22.39
2023-07-16T17:32:00.498Z,22.73
2023-07-16T17:42:25.614Z,22.88
2023-07-16T17:52:47.475Z,22.96
2023-07-16T18:03:08.980Z,22.89
2023-07-16T18:13:30.563Z,22.80
2023-07-16T18:23:52.201Z,22.62
2023-07-16T18:34:13.753Z,22.49
2023-07-16T18:44:35.198Z,22.37
2023-07-16T18:54:58.077Z,22.31
2023-07-16T19:05:19.945Z,22.26
2023-07-16T19:15:41.387Z,22.16
2023-07-16T19:26:05.322Z,22.11
2023-07-16T19:36:26.774Z,22.07
2023-07-16T19:46:48.306Z,21.98
2023-07-16T19:57:09.957Z,21.85
2023-07-16T20:07:35.897Z,21.62
2023-07-16T20:17:57.361Z,21.43
2023-07-16T20:28:20.369Z,21.26
2023-07-16T20:38:41.931Z,21.21
2023-07-16T20:49:04.130Z,21.13
2023-07-16T20:59:25.579Z,20.98
2023-07-16T21:09:47.036Z,20.90
2023-07-16T21:20:10.504Z,20.87
2023-07-16T21:30:32.220Z,20.77
2023-07-16T21:40:53.814Z,20.64
2023-07-16T21:51:15.576Z,20.54
2023-07-16T22:01:38.362Z,20.42
2023-07-16T22:11:59.822Z,20.36
2023-07-16T22:22:21.329Z,20.31
2023-07-16T22:32:42.807Z,20.26
2023-07-16T22:43:06.100Z,20.20
2023-07-16T22:53:27.555Z,20.07
2023-07-16T23:03:49.064Z,19.95
2023-07-16T23:14:10.743Z,19.88
2023-07-16T23:24:32.362Z,19.81
2023-07-16T23:34:53.801Z,19.76
2023-07-16T23:45:15.546Z,19.74
2023-07-16T23:55:36.998Z,19.80
